Time;durP1;ratioP1;P1;durP2;ratioP2;P2;SDS_P1;SDS_P2;PMS_P1;PMS_P2;Temp;Humidity;BMP_temperature;BMP_pressure;BME280_temperature;BME280_humidity;BME280_pressure;Samples;Min_cycle;Max_cycle;Signal;HPM_P1;HPM_P2
2023/09/03 00:00:22;;;;;;;7.22;2.75;;;;;;;16.30;100.00;99448.28;5062983;28;20023;-75
2023/09/03 00:02:48;;;;;;;5.22;2.72;;;;;;;16.31;100.00;99455.38;5056480;28;20036;-76
2023/09/03 00:05:13;;;;;;;4.47;2.80;;;;;;;16.34;100.00;99457.66;5078974;28;20165;-76
2023/09/03 00:07:38;;;;;;;10.45;2.65;;;;;;;16.34;100.00;99457.66;5091932;28;20054;-76
2023/09/03 00:10:04;;;;;;;5.20;3.00;;;;;;;16.35;100.00;99467.56;5075918;28;20031;-76
2023/09/03 00:12:29;;;;;;;7.18;3.00;;;;;;;16.42;100.00;99479.22;5089350;28;20390;-75
2023/09/03 00:14:55;;;;;;;8.57;3.13;;;;;;;16.33;100.00;99472.41;5093101;28;20371;-76
2023/09/03 00:17:20;;;;;;;7.90;2.65;;;;;;;16.39;100.00;99481.59;5073855;28;20032;-76
2023/09/03 00:19:46;;;;;;;7.10;2.78;;;;;;;16.34;100.00;99474.06;5091131;28;20024;-75
2023/09/03 00:22:11;;;;;;;6.25;2.92;;;;;;;16.23;100.00;99472.06;5058108;28;20036;-75
2023/09/03 00:24:36;;;;;;;9.63;3.47;;;;;;;16.21;100.00;99471.44;5093694;28;20123;-75
2023/09/03 00:27:02;;;;;;;6.65;3.63;;;;;;;16.21;100.00;99485.09;5075330;28;20027;-75
2023/09/03 00:29:27;;;;;;;8.15;3.03;;;;;;;16.13;100.00;99488.94;5065122;28;20432;-75
2023/09/03 00:31:52;;;;;;;5.75;2.50;;;;;;;16.16;100.00;99490.38;5082328;28;20091;-75
2023/09/03 00:34:18;;;;;;;4.78;3.00;;;;;;;16.15;100.00;99483.28;5063575;28;20032;-75
2023/09/03 00:36:45;;;;;;;8.23;3.15;;;;;;;16.05;100.00;99477.47;5055308;28;20024;-75
2023/09/03 00:39:10;;;;;;;6.43;2.70;;;;;;;16.10;100.00;99483.09;5075179;28;20024;-76
2023/09/03 00:41:36;;;;;;;4.03;2.90;;;;;;;16.14;100.00;99482.44;5087069;28;20045;-76
2023/09/03 00:44:03;;;;;;;7.90;2.70;;;;;;;16.21;100.00;99483.19;5087119;28;20027;-76
2023/09/03 00:46:29;;;;;;;4.72;2.38;;;;;;;16.29;100.00;99482.09;5081216;28;20017;-76
2023/09/03 00:48:55;;;;;;;4.55;2.65;;;;;;;16.16;100.00;99465.81;5072615;28;20028;-76
2023/09/03 00:51:20;;;;;;;4.35;2.25;;;;;;;16.22;100.00;99484.06;5072675;28;20131;-76
2023/09/03 00:53:51;;;;;;;6.13;2.28;;;;;;;16.19;100.00;99484.47;5081097;28;20028;-75
2023/09/03 00:56:16;;;;;;;2.90;2.00;;;;;;;16.16;100.00;99487.66;5076727;28;20028;-76
2023/09/03 00:58:42;;;;;;;7.45;2.72;;;;;;;16.11;100.00;99492.94;5055987;28;20039;-76
2023/09/03 01:01:09;;;;;;;3.95;1.90;;;;;;;16.04;100.00;99489.47;5083063;28;20028;-75
2023/09/03 01:03:35;;;;;;;6.35;2.88;;;;;;;15.97;100.00;99487.59;5067998;28;20024;-75
2023/09/03 01:06:01;;;;;;;5.13;2.53;;;;;;;15.99;100.00;99488.22;5084514;28;20474;-75
2023/09/03 01:08:28;;;;;;;8.20;2.20;;;;;;;15.96;100.00;99496.84;5106181;28;20067;-76
2023/09/03 01:11:05;;;;;;;4.03;2.50;;;;;;;15.97;100.00;99503.97;5113555;28;20019;-76
2023/09/03 01:13:42;;;;;;;5.38;2.50;;;;;;;15.95;100.00;99492.44;5094947;28;20059;-76
2023/09/03 01:16:17;;;;;;;9.07;2.90;;;;;;;15.96;100.00;99505.03;5068406;28;20675;-76
2023/09/03 01:18:44;;;;;;;9.02;2.25;;;;;;;15.96;100.00;99496.84;5092965;28;20028;-76
2023/09/03 01:21:48;;;;;;;5.85;2.47;;;;;;;15.97;100.00;99516.78;5093099;28;20024;-76
2023/09/03 01:24:39;;;;;;;3.55;2.20;;;;;;;15.91;100.00;99510.31;5074388;28;20063;-76
2023/09/03 01:27:23;;;;;;;8.70;2.28;;;;;;;16.01;100.00;99520.75;5079876;28;20115;-75
2023/09/03 01:29:49;;;;;;;4.57;1.98;;;;;;;16.03;100.00;99517.78;5087901;28;20039;-76
2023/09/03 01:32:17;;;;;;;7.38;2.47;;;;;;;15.99;100.00;99514.69;5088567;28;20028;-75
2023/09/03 01:34:44;;;;;;;3.42;2.42;;;;;;;15.90;100.00;99514.13;5072941;28;20107;-76
2023/09/03 01:37:11;;;;;;;4.65;2.08;;;;;;;15.82;100.00;99522.56;5069779;28;20019;-76
2023/09/03 01:39:37;;;;;;;8.93;2.70;;;;;;;15.76;100.00;99534.34;5092936;28;20042;-75
2023/09/03 01:42:02;;;;;;;4.93;2.67;;;;;;;15.67;100.00;99520.09;5088161;28;20031;-75
2023/09/03 01:44:27;;;;;;;6.80;2.22;;;;;;;15.64;100.00;99525.16;5091419;28;20035;-75
2023/09/03 01:47:07;;;;;;;5.90;2.55;;;;;;;15.60;100.00;99524.75;5066731;28;20024;-76
2023/09/03 01:49:42;;;;;;;;;;;;;;;15.63;100.00;99528.94;5075078;28;20055;-75
2023/09/03 01:52:23;;;;;;;5.00;2.10;;;;;;;15.55;100.00;99533.59;5092148;28;19912;-75
2023/09/03 01:54:51;;;;;;;11.43;2.38;;;;;;;15.47;100.00;99530.28;5071580;28;20060;-75
2023/09/03 01:57:28;;;;;;;3.67;2.10;;;;;;;15.53;100.00;99538.41;5089900;28;20043;-75
2023/09/03 01:59:55;;;;;;;7.15;2.70;;;;;;;15.49;100.00;99534.47;5089373;28;20027;-75
2023/09/03 02:02:21;;;;;;;4.57;2.50;;;;;;;15.46;100.00;99536.81;5091888;28;20024;-75
2023/09/03 02:04:46;;;;;;;2.80;2.20;;;;;;;15.61;100.00;99533.78;5078744;28;20032;-75
2023/09/03 02:07:12;;;;;;;6.13;3.30;;;;;;;15.56;100.00;99534.41;5084355;28;20066;-75
2023/09/03 02:09:37;;;;;;;4.97;3.00;;;;;;;15.56;100.00;99538.00;5089319;28;20163;-75
2023/09/03 02:12:05;;;;;;;7.10;2.55;;;;;;;15.45;100.00;99518.75;5091055;28;20069;-75
2023/09/03 02:14:30;;;;;;;6.20;2.42;;;;;;;15.31;100.00;99504.34;5073151;28;20039;-75
2023/09/03 02:16:55;;;;;;;4.40;2.10;;;;;;;15.41;100.00;99522.97;5089243;28;20016;-75
2023/09/03 02:19:21;;;;;;;5.93;2.65;;;;;;;15.39;100.00;99539.56;5091051;28;20028;-75
2023/09/03 02:21:46;;;;;;;4.45;2.67;;;;;;;15.37;100.00;99538.09;5059285;28;20103;-75
2023/09/03 02:24:11;;;;;;;5.82;2.50;;;;;;;15.26;100.00;99528.69;5084391;28;20426;-75
2023/09/03 02:26:41;;;;;;;5.93;2.53;;;;;;;15.18;100.00;99537.13;5066536;28;20074;-75
2023/09/03 02:29:07;;;;;;;9.68;2.65;;;;;;;15.18;100.00;99537.97;5063443;28;20448;-75
2023/09/03 02:31:32;;;;;;;5.95;2.50;;;;;;;15.08;100.00;99532.13;5076703;28;20056;-75
2023/09/03 02:33:57;;;;;;;4.93;2.10;;;;;;;15.11;100.00;99545.31;5066225;28;20548;-75
2023/09/03 02:36:23;;;;;;;4.07;2.20;;;;;;;15.06;100.00;99539.66;5090599;28;20107;-75
2023/09/03 02:38:58;;;;;;;3.78;2.10;;;;;;;15.16;100.00;99544.69;5076888;28;20024;-76
2023/09/03 02:41:23;;;;;;;4.90;2.15;;;;;;;15.08;100.00;99538.41;5071645;28;20016;-75
2023/09/03 02:43:48;;;;;;;5.53;2.00;;;;;;;15.12;100.00;99556.00;5071974;28;20020;-76
2023/09/03 02:46:14;;;;;;;6.90;3.05;;;;;;;15.12;100.00;99549.72;5086281;28;20503;-76
2023/09/03 02:48:39;;;;;;;3.78;1.90;;;;;;;15.06;100.00;99543.25;5090414;28;20032;-76
2023/09/03 02:51:04;;;;;;;4.20;1.88;;;;;;;15.05;100.00;99538.84;5095468;28;20485;-76
2023/09/03 02:53:30;;;;;;;3.50;1.95;;;;;;;15.03;100.00;99551.84;5086706;28;20028;-76
2023/09/03 02:55:58;;;;;;;6.47;2.33;;;;;;;15.03;100.00;99568.19;5075527;28;20103;-76
2023/09/03 02:58:25;;;;;;;8.88;2.70;;;;;;;14.94;100.00;99561.31;5090161;28;20139;-76
2023/09/03 03:00:50;;;;;;;4.97;2.42;;;;;;;14.94;100.00;99564.03;5108958;28;20025;-77
2023/09/03 03:03:15;;;;;;;4.78;2.67;;;;;;;14.94;100.00;99560.47;5106997;28;20093;-76
2023/09/03 03:05:41;;;;;;;6.00;2.40;;;;;;;14.96;100.00;99567.38;5081687;28;20020;-76
2023/09/03 03:08:08;;;;;;;9.82;2.35;;;;;;;14.89;100.00;99570.09;5077806;28;20493;-75
2023/09/03 03:10:33;;;;;;;4.10;1.98;;;;;;;14.80;100.00;99560.50;5071449;28;20048;-76
2023/09/03 03:12:59;;;;;;;4.20;2.05;;;;;;;14.79;100.00;99568.88;5068428;28;20028;-76
2023/09/03 03:15:24;;;;;;;3.70;2.50;;;;;;;14.76;100.00;99566.56;5072423;28;20020;-75
2023/09/03 03:17:49;;;;;;;3.95;2.10;;;;;;;14.79;100.00;99579.78;5065051;28;20035;-75
2023/09/03 03:20:15;;;;;;;5.68;2.28;;;;;;;14.77;100.00;99570.97;5074666;28;20035;-75
2023/09/03 03:22:40;;;;;;;3.92;2.90;;;;;;;14.78;100.00;99586.28;5078360;28;20021;-76
2023/09/03 03:25:06;;;;;;;7.40;2.70;;;;;;;14.75;100.00;99571.19;5090660;28;20020;-75
2023/09/03 03:27:31;;;;;;;6.65;2.00;;;;;;;14.76;100.00;99582.91;5091059;28;20089;-75
2023/09/03 03:29:56;;;;;;;6.38;2.10;;;;;;;14.79;100.00;99593.38;5081238;28;20020;-75
2023/09/03 03:32:21;;;;;;;3.15;1.90;;;;;;;14.74;100.00;99596.75;5085921;28;20473;-76
2023/09/03 03:34:47;;;;;;;3.67;2.22;;;;;;;14.75;100.00;99592.97;5097732;28;20028;-77
2023/09/03 03:37:12;;;;;;;6.47;2.03;;;;;;;14.81;100.00;99602.19;5072643;28;20077;-76
2023/09/03 03:39:37;;;;;;;3.25;2.30;;;;;;;14.72;100.00;99595.28;5098452;28;20023;-76
2023/09/03 03:42:03;;;;;;;2.80;1.80;;;;;;;14.60;100.00;99579.59;5074121;28;20020;-75
2023/09/03 03:44:28;;;;;;;7.60;2.42;;;;;;;14.72;100.00;99595.28;5099129;28;20110;-75
2023/09/03 03:46:53;;;;;;;3.80;2.67;;;;;;;14.69;100.00;99602.81;5095282;28;20465;-76
2023/09/03 03:49:19;;;;;;;6.90;2.67;;;;;;;14.68;100.00;99592.97;5098931;28;20035;-76
2023/09/03 03:51:44;;;;;;;6.72;2.88;;;;;;;14.65;100.00;99587.97;5093559;28;20027;-76
2023/09/03 03:54:09;;;;;;;3.80;2.42;;;;;;;14.64;100.00;99591.72;5093550;28;20031;-75
2023/09/03 03:56:35;;;;;;;9.48;3.10;;;;;;;14.85;100.00;99597.97;5061583;28;20024;-75
2023/09/03 03:59:00;;;;;;;6.68;2.45;;;;;;;14.91;100.00;99602.59;5090919;28;20481;-75
2023/09/03 04:01:25;;;;;;;7.53;2.63;;;;;;;14.87;100.00;99591.28;5090722;28;20035;-75
2023/09/03 04:03:52;;;;;;;6.75;2.47;;;;;;;14.93;100.00;99599.66;5092786;28;20093;-75
2023/09/03 04:06:18;;;;;;;5.38;2.30;;;;;;;15.00;100.00;99612.22;5093979;28;20489;-76
2023/09/03 04:08:44;;;;;;;5.53;2.05;;;;;;;15.00;100.00;99617.66;5083244;28;20032;-76
2023/09/03 04:11:11;;;;;;;5.97;2.50;;;;;;;14.91;100.00;99597.16;5056054;28;20115;-76
2023/09/03 04:13:38;;;;;;;4.65;2.47;;;;;;;14.95;100.00;99605.72;5090663;28;20027;-77
2023/09/03 04:16:15;;;;;;;6.47;2.38;;;;;;;14.96;100.00;99615.56;5102694;28;20008;-76
2023/09/03 04:18:41;;;;;;;3.40;2.60;;;;;;;14.80;100.00;99608.66;5093294;28;20530;-75
2023/09/03 04:21:07;;;;;;;3.90;2.40;;;;;;;14.78;100.00;99614.34;5094082;28;20465;-75
2023/09/03 04:23:32;;;;;;;3.78;2.20;;;;;;;14.74;100.00;99607.63;5078004;28;20026;-76
2023/09/03 04:25:58;;;;;;;4.95;2.17;;;;;;;14.92;100.00;99615.16;5084880;28;20033;-76
2023/09/03 04:28:24;;;;;;;4.70;2.30;;;;;;;14.95;100.00;99622.09;5089638;28;20040;-76
2023/09/03 04:30:55;;;;;;;6.07;1.92;;;;;;;14.91;100.00;99616.22;5060664;28;20024;-76
2023/09/03 04:33:20;;;;;;;7.50;2.30;;;;;;;14.84;100.00;99607.22;5068008;28;20055;-75
2023/09/03 04:35:46;;;;;;;3.28;2.03;;;;;;;14.86;100.00;99605.97;5087055;28;20445;-76
2023/09/03 04:38:12;;;;;;;3.70;2.30;;;;;;;14.85;100.00;99593.38;5085444;28;20032;-76
2023/09/03 04:40:37;;;;;;;4.10;2.05;;;;;;;15.08;100.00;99616.59;5089510;28;20032;-76
2023/09/03 04:43:03;;;;;;;4.35;1.90;;;;;;;15.06;100.00;99616.84;5075290;28;20016;-75
2023/09/03 04:45:29;;;;;;;3.72;2.22;;;;;;;15.08;100.00;99614.72;5071871;28;20024;-76
2023/09/03 04:47:56;;;;;;;5.22;2.03;;;;;;;15.04;100.00;99616.19;5089141;28;20028;-77
2023/09/03 04:50:22;;;;;;;4.35;2.00;;;;;;;15.06;100.00;99615.97;5068470;28;20052;-76
2023/09/03 04:52:48;;;;;;;4.28;2.03;;;;;;;15.13;100.00;99614.91;5065158;28;20032;-76
2023/09/03 04:55:14;;;;;;;2.83;2.00;;;;;;;15.24;100.00;99632.50;5062014;28;20049;-76
2023/09/03 04:57:40;;;;;;;3.92;1.90;;;;;;;15.19;100.00;99631.47;5074477;28;20024;-76
2023/09/03 05:00:05;;;;;;;3.03;1.70;;;;;;;15.29;100.00;99624.50;5087202;28;20035;-76
2023/09/03 05:02:31;;;;;;;2.17;1.50;;;;;;;15.27;100.00;99642.13;5070248;28;20027;-76
2023/09/03 05:04:57;;;;;;;5.00;1.60;;;;;;;15.24;100.00;99643.41;5089925;28;20023;-76
2023/09/03 05:07:23;;;;;;;2.03;1.40;;;;;;;15.28;100.00;99662.91;5088398;28;20122;-76
2023/09/03 05:09:52;;;;;;;2.30;1.48;;;;;;;15.34;100.00;99668.34;5086695;28;20021;-76
2023/09/03 05:12:17;;;;;;;6.13;1.92;;;;;;;15.41;100.00;99665.59;5089835;28;20032;-73
2023/09/03 05:14:42;;;;;;;2.58;1.55;;;;;;;15.61;100.00;99676.44;5089888;28;20032;-74
2023/09/03 05:17:08;;;;;;;3.42;1.75;;;;;;;15.71;100.00;99676.03;5079522;28;20023;-75
2023/09/03 05:19:33;;;;;;;2.85;2.00;;;;;;;15.65;100.00;99680.44;5091192;28;20107;-80
2023/09/03 05:21:58;;;;;;;3.08;1.63;;;;;;;15.55;100.00;99675.41;5076771;28;20016;-80
2023/09/03 05:24:23;;;;;;;6.32;1.60;;;;;;;15.47;100.00;99667.47;5091589;28;20111;-80
2023/09/03 05:26:49;;;;;;;2.35;1.40;;;;;;;15.55;100.00;99675.41;5088485;28;20024;-74
2023/09/03 05:31:54;;;;;;;;;;;;;;;15.86;100.00;99676.59;5082323;28;20474;-51
2023/09/03 05:34:19;;;;;;;7.00;1.70;;;;;;;15.99;100.00;99684.72;5074471;28;19924;-52
2023/09/03 05:36:45;;;;;;;6.55;1.90;;;;;;;16.07;100.00;99659.09;5078650;28;20021;-51
2023/09/03 05:39:10;;;;;;;4.75;1.70;;;;;;;16.19;100.00;99662.81;5054940;28;20063;-51
2023/09/03 05:41:37;;;;;;;5.43;1.20;;;;;;;16.23;100.00;99649.53;5067893;28;20468;-51
2023/09/03 05:44:06;;;;;;;2.65;1.60;;;;;;;16.19;100.00;99642.81;5072493;28;20031;-51
2023/09/03 05:46:32;;;;;;;6.93;1.70;;;;;;;16.24;100.00;99645.75;5065303;28;20032;-51
2023/09/03 05:48:57;;;;;;;8.13;2.20;;;;;;;16.26;100.00;99643.63;5066322;28;20367;-51
2023/09/03 05:51:23;;;;;;;5.38;2.42;;;;;;;16.39;100.00;99640.81;5070673;28;20028;-51
2023/09/03 05:53:48;;;;;;;7.50;2.22;;;;;;;16.39;100.00;99599.84;5109306;23;20035;-69
2023/09/03 05:56:14;;;;;;;11.15;2.35;;;;;;;16.79;100.00;99623.31;5080962;28;20076;-69
2023/09/03 05:58:39;;;;;;;6.30;2.10;;;;;;;17.11;100.00;99632.28;5077099;28;20036;-79
2023/09/03 06:01:09;;;;;;;7.63;2.35;;;;;;;17.47;100.00;99627.88;5096474;28;20030;-78
2023/09/03 06:03:35;;;;;;;4.22;2.20;;;;;;;17.80;100.00;99629.41;5068776;28;20020;-78
2023/09/03 06:06:04;;;;;;;5.15;1.90;;;;;;;18.18;100.00;99615.38;5072569;28;20022;-77
2023/09/03 06:08:30;;;;;;;4.13;2.05;;;;;;;18.81;100.00;99616.72;5069358;28;20020;-79
2023/09/03 06:10:56;;;;;;;7.07;2.05;;;;;;;19.26;100.00;99614.25;5077430;28;20024;-79
2023/09/03 06:13:29;;;;;;;9.52;2.03;;;;;;;19.81;100.00;99623.13;5062118;28;20126;-78
2023/09/03 06:15:55;;;;;;;6.97;1.80;;;;;;;20.21;100.00;99598.31;5079336;28;20012;-80
2023/09/03 06:18:20;;;;;;;4.18;1.50;;;;;;;20.84;100.00;99614.81;5075996;28;20023;-79
2023/09/03 06:20:45;;;;;;;7.10;1.77;;;;;;;20.88;100.00;99616.81;5067406;28;20024;-75
2023/09/03 06:23:15;;;;;;;8.18;1.85;;;;;;;20.81;100.00;99618.06;5085074;28;20029;-79
2023/09/03 06:25:44;;;;;;;5.22;1.73;;;;;;;20.87;100.00;99622.56;5053286;28;20021;-67
2023/09/03 06:28:09;;;;;;;2.65;1.60;;;;;;;21.27;100.00;99605.00;5083315;28;20465;-67
2023/09/03 06:30:35;;;;;;;3.47;1.48;;;;;;;21.52;100.00;99610.88;5090252;28;20032;-67
2023/09/03 06:33:00;;;;;;;6.50;1.80;;;;;;;21.43;100.00;99604.13;5090523;28;20031;-78
2023/09/03 06:35:26;;;;;;;4.70;1.50;;;;;;;21.41;100.00;99614.59;5063371;28;20077;-78
2023/09/03 06:37:52;;;;;;;6.03;1.60;;;;;;;21.60;100.00;99620.63;5090834;28;20024;-80
2023/09/03 06:40:17;;;;;;;10.25;1.90;;;;;;;21.62;100.00;99602.75;5060842;28;20032;-79
2023/09/03 06:42:42;;;;;;;2.35;1.65;;;;;;;21.64;100.00;99621.75;5081881;28;20070;-80
2023/09/03 06:45:09;;;;;;;4.82;2.00;;;;;;;20.99;100.00;99626.88;5068244;28;20130;-79
2023/09/03 06:47:34;;;;;;;4.95;1.60;;;;;;;21.24;100.00;99648.44;5068258;28;20447;-78
2023/09/03 06:50:00;;;;;;;3.20;1.48;;;;;;;21.29;100.00;99635.84;5080421;28;20024;-80
2023/09/03 06:52:25;;;;;;;2.72;1.55;;;;;;;21.10;100.00;99636.13;5064992;28;20046;-79
2023/09/03 06:54:50;;;;;;;7.20;1.50;;;;;;;21.29;100.00;99649.63;5062360;28;20083;-82
2023/09/03 06:57:16;;;;;;;6.35;2.05;;;;;;;21.18;100.00;99634.88;5074136;28;20056;-74
2023/09/03 06:59:42;;;;;;;3.00;1.40;;;;;;;21.47;100.00;99652.09;5088539;28;20052;-67
2023/09/03 07:02:08;;;;;;;4.35;1.80;;;;;;;21.98;100.00;99650.03;5088889;28;20461;-67
2023/09/03 07:04:34;;;;;;;5.47;1.65;;;;;;;21.69;100.00;99638.34;5082840;28;20119;-67
2023/09/03 07:07:00;;;;;;;2.90;1.50;;;;;;;22.10;100.00;99647.94;5088730;28;20054;-67
2023/09/03 07:09:29;;;;;;;4.22;1.77;;;;;;;22.14;100.00;99644.66;5075322;28;20044;-67
2023/09/03 07:11:54;;;;;;;5.35;1.92;;;;;;;22.76;100.00;99666.25;5092069;28;20142;-67
2023/09/03 07:14:20;;;;;;;6.97;1.77;;;;;;;23.56;100.00;99680.16;5079754;28;20107;-67
2023/09/03 07:16:45;;;;;;;5.75;2.28;;;;;;;24.67;100.00;99670.63;5083981;28;20028;-67
2023/09/03 07:19:10;;;;;;;5.70;1.90;;;;;;;25.82;100.00;99664.69;5094753;28;20388;-79
2023/09/03 07:21:35;;;;;;;2.35;1.58;;;;;;;26.23;100.00;99665.34;5066069;28;20051;-66
2023/09/03 07:24:01;;;;;;;3.65;1.75;;;;;;;26.54;100.00;99666.03;5087944;28;20024;-77
2023/09/03 07:26:26;;;;;;;5.18;1.92;;;;;;;27.22;100.00;99679.13;5092567;28;20405;-77
2023/09/03 07:28:52;;;;;;;3.78;1.92;;;;;;;27.41;100.00;99667.25;5084957;28;20682;-76
2023/09/03 07:31:17;;;;;;;9.05;1.98;;;;;;;28.19;100.00;99654.94;5067364;28;20110;-72
2023/09/03 07:33:44;;;;;;;3.60;1.65;;;;;;;28.59;100.00;99680.56;5091605;28;20028;-77
2023/09/03 07:36:10;;;;;;;3.13;1.92;;;;;;;27.87;100.00;99695.41;5089934;28;20020;-76
2023/09/03 07:38:37;;;;;;;5.93;2.22;;;;;;;28.08;100.00;99676.50;5076229;28;20028;-78
2023/09/03 07:41:02;;;;;;;3.67;1.90;;;;;;;29.00;100.00;99689.09;5063935;28;20027;-71
2023/09/03 07:43:29;;;;;;;4.45;2.17;;;;;;;30.34;96.33;99679.88;5088119;28;20020;-70
2023/09/03 07:45:54;;;;;;;5.57;2.50;;;;;;;30.41;96.96;99687.00;5088591;28;20024;-72
2023/09/03 07:48:20;;;;;;;2.58;1.67;;;;;;;31.19;87.60;99694.06;5092428;28;20092;-70
2023/09/03 07:50:45;;;;;;;3.08;1.98;;;;;;;30.26;93.83;99689.00;5091280;28;20055;-69
2023/09/03 07:53:10;;;;;;;3.55;1.67;;;;;;;31.32;84.16;99678.34;5093924;28;20093;-76
2023/09/03 07:55:36;;;;;;;3.97;1.60;;;;;;;31.65;82.26;99680.88;5090755;28;20093;-80
2023/09/03 07:58:01;;;;;;;4.43;2.17;;;;;;;32.46;73.30;99688.00;5087055;28;20095;-77
2023/09/03 08:00:27;;;;;;;2.75;1.90;;;;;;;32.02;75.36;99682.34;5058321;28;20115;-79
2023/09/03 08:02:52;;;;;;;4.93;2.40;;;;;;;31.73;74.54;99662.44;5095890;28;20085;-78
2023/09/03 08:05:18;;;;;;;5.25;2.13;;;;;;;31.75;76.11;99693.72;5076732;28;20028;-79
2023/09/03 08:07:43;;;;;;;4.80;2.63;;;;;;;29.11;100.00;99686.16;5079398;28;20095;-73
2023/09/03 08:10:09;;;;;;;3.38;2.60;;;;;;;30.16;97.50;99692.00;5092578;28;20488;-72
2023/09/03 08:12:34;;;;;;;6.63;2.40;;;;;;;30.86;90.89;99684.28;5072945;28;20050;-72
2023/09/03 08:14:59;;;;;;;4.18;2.60;;;;;;;31.22;82.68;99682.25;5079587;28;20029;-73
2023/09/03 08:17:26;;;;;;;5.75;2.00;;;;;;;33.23;76.50;99700.41;5069961;28;20081;-73
2023/09/03 08:19:51;;;;;;;7.60;2.20;;;;;;;35.49;64.65;99687.75;5075141;28;20495;-73
2023/09/03 08:22:17;;;;;;;2.50;1.90;;;;;;;36.53;58.88;99694.03;5074965;28;20024;-74
2023/09/03 08:24:42;;;;;;;2.70;2.13;;;;;;;37.94;53.04;99696.78;5070652;28;20036;-73
2023/09/03 08:27:08;;;;;;;4.95;2.70;;;;;;;37.37;50.95;99698.09;5067226;28;20289;-77
2023/09/03 08:29:34;;;;;;;5.05;2.90;;;;;;;36.62;52.41;99705.19;5088705;28;20371;-77
2023/09/03 08:32:00;;;;;;;5.05;2.63;;;;;;;35.81;53.48;99713.41;5089606;28;20054;-80
2023/09/03 08:34:25;;;;;;;5.38;2.60;;;;;;;35.18;57.97;99687.44;5084013;28;20061;-80
2023/09/03 08:36:50;;;;;;;5.45;2.65;;;;;;;35.49;54.85;99696.19;5070743;28;20052;-69
2023/09/03 08:39:16;;;;;;;2.73;1.90;;;;;;;37.43;52.51;99714.38;5091970;28;20020;-69
2023/09/03 08:41:43;;;;;;;3.83;2.43;;;;;;;37.64;50.53;99722.63;5079894;28;20278;-69
2023/09/03 08:44:25;;;;;;;4.15;2.50;;;;;;;36.53;51.87;99725.03;5091070;28;20285;-70
2023/09/03 08:46:51;;;;;;;4.15;2.08;;;;;;;37.61;52.13;99719.72;5083569;28;20024;-70
2023/09/03 08:49:17;;;;;;;4.55;1.90;;;;;;;37.08;51.67;99728.34;5085883;28;20098;-66
2023/09/03 08:51:43;;;;;;;5.63;2.20;;;;;;;37.13;49.45;99725.25;5085177;28;20489;-67
2023/09/03 08:54:10;;;;;;;4.25;2.03;;;;;;;36.45;50.18;99722.34;5090858;28;20101;-68
2023/09/03 08:56:35;;;;;;;2.90;1.83;;;;;;;36.02;52.75;99721.75;5086041;28;20028;-70
2023/09/03 08:59:00;;;;;;;4.40;1.95;;;;;;;36.15;52.25;99716.97;5088799;28;20511;-76
2023/09/03 09:01:29;;;;;;;5.35;1.98;;;;;;;36.13;52.77;99724.94;5089643;28;20039;-68
2023/09/03 09:04:01;;;;;;;4.43;1.70;;;;;;;36.38;52.33;99715.31;5087610;28;20473;-77
2023/09/03 09:06:29;;;;;;;2.80;1.63;;;;;;;36.50;53.01;99716.44;5094235;28;20030;-79
2023/09/03 09:08:55;;;;;;;4.07;1.80;;;;;;;37.02;51.22;99721.25;5074042;28;20099;-79
2023/09/03 09:11:21;;;;;;;2.95;1.70;;;;;;;37.00;53.06;99718.81;5084398;28;20028;-77
2023/09/03 09:13:55;;;;;;;4.57;1.98;;;;;;;37.59;52.26;99734.19;5078300;28;20028;-80
2023/09/03 09:16:21;;;;;;;2.53;1.58;;;;;;;36.30;52.27;99721.88;5065850;28;20043;-77
2023/09/03 09:18:46;;;;;;;2.70;1.80;;;;;;;37.46;51.51;99724.94;5068334;28;20025;-83
2023/09/03 09:21:12;;;;;;;5.70;2.03;;;;;;;35.78;54.43;99719.75;5064388;28;20032;-76
2023/09/03 09:23:37;;;;;;;2.92;1.40;;;;;;;37.53;53.29;99715.91;5072214;28;20227;-76
2023/09/03 09:26:15;;;;;;;2.33;1.45;;;;;;;37.00;52.65;99730.09;5085826;28;20119;-66
2023/09/03 09:28:56;;;;;;;4.65;1.55;;;;;;;38.21;51.69;99743.09;5088849;28;20114;-67
2023/09/03 09:31:26;;;;;;;2.20;1.30;;;;;;;39.64;48.72;99746.22;5085395;28;20036;-67
2023/09/03 09:33:51;;;;;;;2.17;1.50;;;;;;;39.55;48.00;99748.47;5089979;28;20033;-67
2023/09/03 09:36:16;;;;;;;1.93;1.37;;;;;;;39.95;44.80;99741.50;5070084;28;20028;-67
2023/09/03 09:38:42;;;;;;;2.10;1.00;;;;;;;40.49;44.94;99745.22;5091048;28;20646;-67
2023/09/03 09:41:24;;;;;;;2.25;1.20;;;;;;;39.37;44.67;99739.63;5086901;28;20282;-67
2023/09/03 09:43:51;;;;;;;2.88;1.20;;;;;;;39.09;44.80;99730.53;5080285;28;20055;-67
2023/09/03 09:46:30;;;;;;;2.88;1.25;;;;;;;39.63;45.21;99729.59;5081974;28;20381;-67
2023/09/03 09:48:57;;;;;;;2.30;1.33;;;;;;;40.10;45.70;99731.22;5090221;28;20507;-67
2023/09/03 09:51:23;;;;;;;2.42;1.10;;;;;;;39.74;43.59;99721.28;5088075;28;20067;-69
2023/09/03 09:53:55;;;;;;;2.55;1.05;;;;;;;40.71;43.97;99729.34;5067095;28;20072;-67
2023/09/03 09:56:24;;;;;;;1.55;0.95;;;;;;;40.61;42.43;99722.31;5086107;28;20024;-67
2023/09/03 09:58:50;;;;;;;1.60;0.80;;;;;;;41.91;41.61;99727.50;5078751;28;20127;-69
2023/09/03 10:01:15;;;;;;;2.05;0.90;;;;;;;41.09;41.65;99724.59;5082104;28;20111;-68
2023/09/03 10:03:48;;;;;;;0.50;0.50;;;;;;;41.18;41.49;99725.91;5089825;28;20100;-67
2023/09/03 10:06:15;;;;;;;1.00;0.50;;;;;;;41.10;40.98;99712.03;5088081;28;20286;-67
2023/09/03 10:08:42;;;;;;;1.08;0.60;;;;;;;40.18;40.86;99713.13;5089012;28;20032;-68
2023/09/03 10:11:08;;;;;;;0.20;0.20;;;;;;;39.78;40.42;99711.69;5086232;28;20073;-68
2023/09/03 10:13:33;;;;;;;0.50;0.20;;;;;;;37.44;43.42;99727.34;5087154;28;20048;-68
2023/09/03 10:16:03;;;;;;;1.23;0.20;;;;;;;36.49;46.05;99720.44;5087815;28;20043;-68
2023/09/03 10:18:31;;;;;;;0.28;0.25;;;;;;;38.37;43.76;99723.25;5090369;28;20052;-68
2023/09/03 10:20:59;;;;;;;;;;;;;;;39.98;41.24;99714.41;5087428;28;20035;-68
2023/09/03 10:23:28;;;;;;;0.52;0.30;;;;;;;40.87;41.33;99703.59;5083717;28;19908;-68
2023/09/03 10:25:56;;;;;;;0.40;0.30;;;;;;;42.17;39.00;99709.44;5065669;28;20036;-68
2023/09/03 10:28:24;;;;;;;1.05;0.38;;;;;;;42.88;37.59;99703.38;5086229;28;20064;-68
2023/09/03 10:30:52;;;;;;;0.45;0.40;;;;;;;41.27;37.44;99717.09;5080516;28;20081;-68
2023/09/03 10:33:17;;;;;;;1.95;0.40;;;;;;;40.08;38.92;99713.78;5084572;28;20044;-68
2023/09/03 10:36:10;;;;;;;3.38;0.30;;;;;;;41.66;38.92;99715.88;5084015;28;20050;-68
2023/09/03 10:38:36;;;;;;;1.65;0.47;;;;;;;40.43;40.30;99704.19;5087300;28;20055;-67
2023/09/03 10:41:21;;;;;;;0.20;0.20;;;;;;;40.48;40.53;99698.19;5084048;28;20709;-68
2023/09/03 10:43:50;;;;;;;0.50;0.40;;;;;;;41.41;37.91;99699.38;5091466;28;20169;-68
2023/09/03 10:46:15;;;;;;;0.43;0.25;;;;;;;41.55;38.89;99705.22;5090721;28;20028;-68
2023/09/03 10:48:50;;;;;;;1.10;0.47;;;;;;;41.33;38.64;99709.06;5081413;28;20110;-68
2023/09/03 10:51:29;;;;;;;1.05;0.40;;;;;;;41.16;37.90;99707.63;5091922;28;20035;-69
2023/09/03 10:53:54;;;;;;;0.70;0.30;;;;;;;40.84;38.20;99707.22;5084499;28;20044;-68
2023/09/03 10:56:20;;;;;;;0.60;0.40;;;;;;;41.07;37.80;99709.94;5091022;28;20028;-69
2023/09/03 10:58:53;;;;;;;1.75;0.32;;;;;;;40.18;39.66;99713.13;5092947;28;20289;-68
2023/09/03 11:01:22;;;;;;;2.45;0.40;;;;;;;40.66;39.39;99716.31;5061752;28;20028;-69
2023/09/03 11:03:54;;;;;;;1.10;0.40;;;;;;;40.37;38.52;99708.56;5087356;28;20323;-68
2023/09/03 11:06:23;;;;;;;1.27;0.50;;;;;;;40.27;40.18;99710.03;5092996;28;20064;-68
2023/09/03 11:09:10;;;;;;;0.82;0.40;;;;;;;42.20;38.25;99703.78;5076057;28;20666;-69
2023/09/03 11:11:38;;;;;;;0.80;0.40;;;;;;;42.51;37.54;99707.25;5081823;28;20781;-68
2023/09/03 11:14:04;;;;;;;1.27;0.40;;;;;;;42.49;38.04;99711.72;5089751;28;20409;-68
2023/09/03 11:16:31;;;;;;;2.65;0.40;;;;;;;41.87;37.29;99716.09;5083859;28;20021;-68
2023/09/03 11:18:57;;;;;;;0.50;0.30;;;;;;;42.04;38.23;99714.63;5089892;28;20032;-69
2023/09/03 11:21:23;;;;;;;1.08;0.40;;;;;;;42.27;38.02;99714.38;5094075;28;20055;-68
2023/09/03 11:24:05;;;;;;;0.50;0.35;;;;;;;42.24;37.26;99718.03;5088065;28;20071;-69
2023/09/03 11:26:33;;;;;;;0.30;0.30;;;;;;;41.71;37.30;99719.19;5082975;28;21407;-69
2023/09/03 11:29:00;;;;;;;0.68;0.32;;;;;;;42.32;37.27;99718.91;5083354;28;20458;-68
2023/09/03 11:31:25;;;;;;;0.93;0.50;;;;;;;42.37;35.97;99710.00;5087741;28;20119;-69